sensor_id;sensor_type;location;lat;lon;timestamp;pressure;altitude;pressure_sealevel;temperature;humidity
3544;BME280;1786;52.870;9.578;2022-11-20T00:01:39;100284.47;;;13.02;47.51
3544;BME280;1786;52.870;9.578;2022-11-20T00:04:11;100285.94;;;13.06;47.62
3544;BME280;1786;52.870;9.578;2022-11-20T00:06:43;100290.28;;;12.95;47.73
3544;BME280;1786;52.870;9.578;2022-11-20T00:09:12;100286.16;;;13.03;47.39
3544;BME280;1786;52.870;9.578;2022-11-20T00:11:44;100281.09;;;12.77;48.12
3544;BME280;1786;52.870;9.578;2022-11-20T00:14:13;100278.22;;;12.80;48.02
3544;BME280;1786;52.870;9.578;2022-11-20T00:16:43;100282.75;;;12.67;48.11
3544;BME280;1786;52.870;9.578;2022-11-20T00:19:10;100287.09;;;12.56;48.48
3544;BME280;1786;52.870;9.578;2022-11-20T00:21:39;100281.09;;;12.77;47.92
3544;BME280;1786;52.870;9.578;2022-11-20T00:24:09;100279.88;;;12.92;48.51
3544;BME280;1786;52.870;9.578;2022-11-20T00:26:42;100274.81;;;12.67;48.28
3544;BME280;1786;52.870;9.578;2022-11-20T00:29:09;100278.44;;;12.77;47.99
3544;BME280;1786;52.870;9.578;2022-11-20T00:31:39;100268.78;;;12.65;48.74
3544;BME280;1786;52.870;9.578;2022-11-20T00:34:11;100268.06;;;12.63;48.53
3544;BME280;1786;52.870;9.578;2022-11-20T00:36:41;100276.75;;;12.87;48.30
3544;BME280;1786;52.870;9.578;2022-11-20T00:39:11;100275.44;;;13.04;48.04
3544;BME280;1786;52.870;9.578;2022-11-20T00:41:38;100268.81;;;12.98;47.93
3544;BME280;1786;52.870;9.578;2022-11-20T00:44:05;100276.53;;;13.13;48.03
3544;BME280;1786;52.870;9.578;2022-11-20T00:46:34;100272.19;;;13.23;47.99
3544;BME280;1786;52.870;9.578;2022-11-20T00:49:01;100269.66;;;13.33;48.02
3544;BME280;1786;52.870;9.578;2022-11-20T00:51:28;100270.63;;;13.09;48.58
3544;BME280;1786;52.870;9.578;2022-11-20T00:53:58;100269.03;;;12.84;48.62
3544;BME280;1786;52.870;9.578;2022-11-20T00:56:29;100268.69;;;12.77;48.95
3544;BME280;1786;52.870;9.578;2022-11-20T00:58:59;100263.75;;;12.73;49.56
3544;BME280;1786;52.870;9.578;2022-11-20T01:01:28;100264.38;;;12.88;48.89
3544;BME280;1786;52.870;9.578;2022-11-20T01:04:00;100269.28;;;12.92;49.12
3544;BME280;1786;52.870;9.578;2022-11-20T01:06:33;100262.69;;;12.98;49.07
3544;BME280;1786;52.870;9.578;2022-11-20T01:09:04;100269.75;;;12.97;48.46
3544;BME280;1786;52.870;9.578;2022-11-20T01:11:34;100270.75;;;12.85;49.11
3544;BME280;1786;52.870;9.578;2022-11-20T01:14:05;100268.09;;;12.96;48.76
3544;BME280;1786;52.870;9.578;2022-11-20T01:16:37;100265.44;;;12.96;48.96
3544;BME280;1786;52.870;9.578;2022-11-20T01:19:07;100264.13;;;12.91;48.63
3544;BME280;1786;52.870;9.578;2022-11-20T01:21:38;100254.94;;;13.06;49.12
3544;BME280;1786;52.870;9.578;2022-11-20T01:24:07;100258.91;;;13.12;48.82
3544;BME280;1786;52.870;9.578;2022-11-20T01:26:41;100251.31;;;13.07;48.68
3544;BME280;1786;52.870;9.578;2022-11-20T01:29:21;100255.81;;;13.29;48.36
3544;BME280;1786;52.870;9.578;2022-11-20T01:31:50;100244.94;;;13.32;48.59
3544;BME280;1786;52.870;9.578;2022-11-20T01:34:21;100251.22;;;13.31;48.17
3544;BME280;1786;52.870;9.578;2022-11-20T01:36:51;100250.00;;;13.13;48.65
3544;BME280;1786;52.870;9.578;2022-11-20T01:39:26;100235.66;;;12.59;49.24
3544;BME280;1786;52.870;9.578;2022-11-20T01:41:55;100235.06;;;12.55;49.13
3544;BME280;1786;52.870;9.578;2022-11-20T01:44:57;100226.38;;;12.53;49.71
3544;BME280;1786;52.870;9.578;2022-11-20T01:47:38;100220.09;;;12.43;49.56
3544;BME280;1786;52.870;9.578;2022-11-20T01:50:27;100232.84;;;12.49;49.41
3544;BME280;1786;52.870;9.578;2022-11-20T01:53:00;100227.34;;;12.64;49.65
3544;BME280;1786;52.870;9.578;2022-11-20T01:55:36;100226.97;;;12.57;49.17
3544;BME280;1786;52.870;9.578;2022-11-20T01:58:06;100221.53;;;12.36;49.65
3544;BME280;1786;52.870;9.578;2022-11-20T02:00:39;100222.41;;;12.48;49.47
3544;BME280;1786;52.870;9.578;2022-11-20T02:03:15;100211.53;;;12.40;49.61
3544;BME280;1786;52.870;9.578;2022-11-20T02:05:51;100228.56;;;12.71;49.21
3544;BME280;1786;52.870;9.578;2022-11-20T02:08:21;100222.25;;;12.38;49.53
3544;BME280;1786;52.870;9.578;2022-11-20T02:10:50;100214.91;;;12.42;49.89
3544;BME280;1786;52.870;9.578;2022-11-20T02:13:17;100205.63;;;12.36;49.61
3544;BME280;1786;52.870;9.578;2022-11-20T02:16:30;100206.25;;;12.62;49.22
3544;BME280;1786;52.870;9.578;2022-11-20T02:19:00;100212.41;;;12.74;48.98
3544;BME280;1786;52.870;9.578;2022-11-20T02:24:14;100212.03;;;12.78;49.00
3544;BME280;1786;52.870;9.578;2022-11-20T02:27:00;100216.97;;;13.06;48.48
3544;BME280;1786;52.870;9.578;2022-11-20T02:29:39;100211.91;;;13.03;48.35
3544;BME280;1786;52.870;9.578;2022-11-20T02:32:19;100216.03;;;12.95;48.46
3544;BME280;1786;52.870;9.578;2022-11-20T02:34:46;100206.84;;;12.99;48.51
3544;BME280;1786;52.870;9.578;2022-11-20T02:37:14;100207.56;;;13.13;48.16
3544;BME280;1786;52.870;9.578;2022-11-20T02:39:43;100206.38;;;13.06;48.23
3544;BME280;1786;52.870;9.578;2022-11-20T02:42:11;100207.22;;;12.61;48.47
3544;BME280;1786;52.870;9.578;2022-11-20T02:44:38;100203.38;;;12.76;48.87
3544;BME280;1786;52.870;9.578;2022-11-20T02:47:05;100199.63;;;12.79;48.26
3544;BME280;1786;52.870;9.578;2022-11-20T02:49:32;100195.75;;;12.72;49.03
3544;BME280;1786;52.870;9.578;2022-11-20T02:52:02;100197.72;;;12.81;48.44
3544;BME280;1786;52.870;9.578;2022-11-20T02:54:29;100200.47;;;12.91;48.51
3544;BME280;1786;52.870;9.578;2022-11-20T02:56:56;100195.03;;;12.92;48.15
3544;BME280;1786;52.870;9.578;2022-11-20T02:59:23;100198.19;;;12.86;48.29
3544;BME280;1786;52.870;9.578;2022-11-20T03:01:50;100196.50;;;12.96;48.49
3544;BME280;1786;52.870;9.578;2022-11-20T03:04:17;100202.28;;;12.90;48.51
3544;BME280;1786;52.870;9.578;2022-11-20T03:06:47;100195.28;;;13.01;48.65
3544;BME280;1786;52.870;9.578;2022-11-20T03:09:14;100194.63;;;13.19;48.02
3544;BME280;1786;52.870;9.578;2022-11-20T03:11:43;100194.06;;;13.05;48.23
3544;BME280;1786;52.870;9.578;2022-11-20T03:14:11;100194.06;;;13.05;48.18
3544;BME280;1786;52.870;9.578;2022-11-20T03:16:40;100195.94;;;13.25;47.94
3544;BME280;1786;52.870;9.578;2022-11-20T03:19:07;100186.34;;;13.02;48.36
3544;BME280;1786;52.870;9.578;2022-11-20T03:21:36;100187.53;;;13.20;48.72
3544;BME280;1786;52.870;9.578;2022-11-20T03:24:03;100175.84;;;13.34;47.95
3544;BME280;1786;52.870;9.578;2022-11-20T03:26:30;100174.00;;;13.34;47.79
3544;BME280;1786;52.870;9.578;2022-11-20T03:29:00;100174.13;;;13.44;47.59
3544;BME280;1786;52.870;9.578;2022-11-20T03:31:34;100181.50;;;13.29;48.10
3544;BME280;1786;52.870;9.578;2022-11-20T03:34:02;100163.88;;;13.39;48.02
3544;BME280;1786;52.870;9.578;2022-11-20T03:36:30;100172.09;;;13.36;48.14
3544;BME280;1786;52.870;9.578;2022-11-20T03:39:00;100176.41;;;13.49;47.84
3544;BME280;1786;52.870;9.578;2022-11-20T03:41:35;100171.13;;;13.26;48.64
3544;BME280;1786;52.870;9.578;2022-11-20T03:44:05;100174.19;;;12.99;48.87
3544;BME280;1786;52.870;9.578;2022-11-20T03:46:32;100163.09;;;12.94;49.26
3544;BME280;1786;52.870;9.578;2022-11-20T03:49:00;100157.56;;;12.86;48.89
3544;BME280;1786;52.870;9.578;2022-11-20T03:51:31;100152.34;;;13.07;48.87
3544;BME280;1786;52.870;9.578;2022-11-20T03:54:05;100142.06;;;13.25;48.52
3544;BME280;1786;52.870;9.578;2022-11-20T03:56:35;100139.25;;;13.70;48.12
3544;BME280;1786;52.870;9.578;2022-11-20T03:59:03;100146.94;;;13.73;47.51
3544;BME280;1786;52.870;9.578;2022-11-20T04:01:32;100138.88;;;13.74;47.36
3544;BME280;1786;52.870;9.578;2022-11-20T04:03:59;100145.16;;;13.94;47.40
3544;BME280;1786;52.870;9.578;2022-11-20T04:06:29;100132.81;;;13.83;47.70
3544;BME280;1786;52.870;9.578;2022-11-20T04:09:00;100136.34;;;13.73;47.60
3544;BME280;1786;52.870;9.578;2022-11-20T04:11:32;100138.34;;;13.80;47.61
3544;BME280;1786;52.870;9.578;2022-11-20T04:14:03;100136.47;;;13.92;47.10
3544;BME280;1786;52.870;9.578;2022-11-20T04:16:35;100134.13;;;13.78;47.90
3544;BME280;1786;52.870;9.578;2022-11-20T04:19:10;100136.28;;;14.05;47.43
3544;BME280;1786;52.870;9.578;2022-11-20T04:21:40;100138.00;;;14.16;46.90
3544;BME280;1786;52.870;9.578;2022-11-20T04:24:08;100122.72;;;14.08;47.17
3544;BME280;1786;52.870;9.578;2022-11-20T04:26:43;100134.50;;;14.15;46.76
3544;BME280;1786;52.870;9.578;2022-11-20T04:29:12;100125.97;;;13.91;47.55
3544;BME280;1786;52.870;9.578;2022-11-20T04:31:43;100127.09;;;14.09;47.21
3544;BME280;1786;52.870;9.578;2022-11-20T04:34:10;100131.94;;;14.04;46.83
3544;BME280;1786;52.870;9.578;2022-11-20T04:36:38;100129.47;;;14.12;46.60
3544;BME280;1786;52.870;9.578;2022-11-20T04:39:05;100132.84;;;14.14;46.88
3544;BME280;1786;52.870;9.578;2022-11-20T04:41:35;100125.66;;;14.05;46.77
3544;BME280;1786;52.870;9.578;2022-11-20T04:44:04;100129.41;;;14.02;46.86
3544;BME280;1786;52.870;9.578;2022-11-20T04:46:34;100127.53;;;13.93;47.33
3544;BME280;1786;52.870;9.578;2022-11-20T04:49:01;100135.16;;;14.07;46.88
3544;BME280;1786;52.870;9.578;2022-11-20T04:51:28;100117.56;;;13.64;47.65
3544;BME280;1786;52.870;9.578;2022-11-20T04:53:55;100127.69;;;13.92;47.04
3544;BME280;1786;52.870;9.578;2022-11-20T04:56:22;100127.84;;;13.58;47.65
3544;BME280;1786;52.870;9.578;2022-11-20T04:58:49;100119.06;;;13.78;47.24
3544;BME280;1786;52.870;9.578;2022-11-20T05:01:21;100122.97;;;13.63;47.72
3544;BME280;1786;52.870;9.578;2022-11-20T05:03:49;100123.44;;;13.47;47.95
3544;BME280;1786;52.870;9.578;2022-11-20T05:06:19;100121.22;;;13.31;48.05
3544;BME280;1786;52.870;9.578;2022-11-20T05:08:46;100137.31;;;13.51;47.77
3544;BME280;1786;52.870;9.578;2022-11-20T05:11:15;100125.63;;;13.63;47.32
3544;BME280;1786;52.870;9.578;2022-11-20T05:13:42;100128.69;;;13.58;48.10
3544;BME280;1786;52.870;9.578;2022-11-20T05:16:16;100119.56;;;13.51;47.81
3544;BME280;1786;52.870;9.578;2022-11-20T05:18:44;100123.88;;;13.52;47.84
3544;BME280;1786;52.870;9.578;2022-11-20T05:21:11;100125.81;;;13.18;48.35
3544;BME280;1786;52.870;9.578;2022-11-20T05:23:39;100127.94;;;13.35;48.41
3544;BME280;1786;52.870;9.578;2022-11-20T05:26:07;100125.34;;;13.02;48.55
3544;BME280;1786;52.870;9.578;2022-11-20T05:28:34;100123.63;;;13.12;48.50
3544;BME280;1786;52.870;9.578;2022-11-20T05:31:14;100129.47;;;12.94;48.81
3544;BME280;1786;52.870;9.578;2022-11-20T05:33:45;100116.28;;;13.27;48.18
3544;BME280;1786;52.870;9.578;2022-11-20T05:36:13;100117.91;;;13.39;48.06
3544;BME280;1786;52.870;9.578;2022-11-20T05:38:41;100122.31;;;13.50;48.17
3544;BME280;1786;52.870;9.578;2022-11-20T05:41:13;100115.53;;;13.57;47.72
3544;BME280;1786;52.870;9.578;2022-11-20T05:43:42;100107.47;;;13.58;47.90
3544;BME280;1786;52.870;9.578;2022-11-20T05:46:11;100106.09;;;13.43;48.17
3544;BME280;1786;52.870;9.578;2022-11-20T05:48:39;100111.59;;;13.51;47.83
3544;BME280;1786;52.870;9.578;2022-11-20T05:51:08;100113.28;;;13.52;48.05
3544;BME280;1786;52.870;9.578;2022-11-20T05:53:35;100103.75;;;13.50;47.74
3544;BME280;1786;52.870;9.578;2022-11-20T05:56:05;100103.63;;;13.08;48.79
3544;BME280;1786;52.870;9.578;2022-11-20T05:58:33;100101.94;;;13.07;48.41
3544;BME280;1786;52.870;9.578;2022-11-20T06:01:14;100103.09;;;13.36;48.34
3544;BME280;1786;52.870;9.578;2022-11-20T06:03:42;100101.09;;;13.50;47.92
3544;BME280;1786;52.870;9.578;2022-11-20T06:06:13;100097.31;;;13.20;48.38
3544;BME280;1786;52.870;9.578;2022-11-20T06:08:39;100100.81;;;13.32;48.19
3544;BME280;1786;52.870;9.578;2022-11-20T06:11:08;100116.72;;;13.43;47.97
3544;BME280;1786;52.870;9.578;2022-11-20T06:13:35;100120.59;;;13.60;47.97
3544;BME280;1786;52.870;9.578;2022-11-20T06:16:08;100109.22;;;13.69;47.70
3544;BME280;1786;52.870;9.578;2022-11-20T06:18:34;100113.47;;;13.60;47.77
3544;BME280;1786;52.870;9.578;2022-11-20T06:21:08;100113.16;;;13.75;47.46
3544;BME280;1786;52.870;9.578;2022-11-20T06:23:36;100106.25;;;13.83;47.36
3544;BME280;1786;52.870;9.578;2022-11-20T06:26:05;100106.25;;;13.83;47.25
3544;BME280;1786;52.870;9.578;2022-11-20T06:28:33;100104.16;;;13.87;47.53
3544;BME280;1786;52.870;9.578;2022-11-20T06:30:59;100100.16;;;13.72;47.42
3544;BME280;1786;52.870;9.578;2022-11-20T06:33:26;100089.16;;;13.76;47.22
3544;BME280;1786;52.870;9.578;2022-11-20T06:35:56;100084.66;;;13.77;47.48
3544;BME280;1786;52.870;9.578;2022-11-20T06:38:28;100073.66;;;13.60;47.52
3544;BME280;1786;52.870;9.578;2022-11-20T06:40:55;100078.13;;;13.60;47.40
3544;BME280;1786;52.870;9.578;2022-11-20T06:43:22;100070.53;;;13.34;47.92
3544;BME280;1786;52.870;9.578;2022-11-20T06:45:53;100077.41;;;13.58;47.29
3544;BME280;1786;52.870;9.578;2022-11-20T06:48:20;100079.28;;;13.67;47.54
3544;BME280;1786;52.870;9.578;2022-11-20T06:50:47;100063.94;;;13.71;47.18
3544;BME280;1786;52.870;9.578;2022-11-20T06:53:14;100066.97;;;13.45;47.84
3544;BME280;1786;52.870;9.578;2022-11-20T06:55:44;100074.50;;;13.61;47.35
3544;BME280;1786;52.870;9.578;2022-11-20T06:58:14;100069.84;;;13.74;47.31
3544;BME280;1786;52.870;9.578;2022-11-20T07:00:41;100065.16;;;13.88;47.02
3544;BME280;1786;52.870;9.578;2022-11-20T07:03:11;100060.06;;;13.75;47.35
3544;BME280;1786;52.870;9.578;2022-11-20T07:05:38;100067.84;;;13.67;47.48
3544;BME280;1786;52.870;9.578;2022-11-20T07:08:05;100067.88;;;13.34;48.19
3544;BME280;1786;52.870;9.578;2022-11-20T07:10:32;100074.53;;;13.29;48.02
3544;BME280;1786;52.870;9.578;2022-11-20T07:12:59;100073.72;;;13.28;48.24
3544;BME280;1786;52.870;9.578;2022-11-20T07:15:26;100065.69;;;13.39;47.86
3544;BME280;1786;52.870;9.578;2022-11-20T07:17:53;100061.97;;;12.98;48.36
3544;BME280;1786;52.870;9.578;2022-11-20T07:20:20;100062.88;;;13.09;48.46
3544;BME280;1786;52.870;9.578;2022-11-20T07:22:53;100061.78;;;13.11;48.24
3544;BME280;1786;52.870;9.578;2022-11-20T07:25:20;100062.16;;;13.07;48.36
3544;BME280;1786;52.870;9.578;2022-11-20T07:27:46;100062.22;;;12.95;48.66
3544;BME280;1786;52.870;9.578;2022-11-20T07:30:14;100069.88;;;13.10;48.79
3544;BME280;1786;52.870;9.578;2022-11-20T07:32:41;100067.28;;;12.98;49.14
3544;BME280;1786;52.870;9.578;2022-11-20T07:35:08;100069.78;;;13.00;48.48
3544;BME280;1786;52.870;9.578;2022-11-20T07:37:35;100061.81;;;12.56;49.20
3544;BME280;1786;52.870;9.578;2022-11-20T07:40:02;100066.34;;;12.88;49.10
3544;BME280;1786;52.870;9.578;2022-11-20T07:42:29;100064.63;;;12.87;48.84
3544;BME280;1786;52.870;9.578;2022-11-20T07:44:56;100061.63;;;13.24;48.73
3544;BME280;1786;52.870;9.578;2022-11-20T07:47:23;100055.84;;;13.19;48.91
3544;BME280;1786;52.870;9.578;2022-11-20T07:49:49;100055.00;;;13.30;48.54
3544;BME280;1786;52.870;9.578;2022-11-20T07:52:16;100051.50;;;13.29;48.18
3544;BME280;1786;52.870;9.578;2022-11-20T07:54:42;100048.94;;;13.39;48.43
3544;BME280;1786;52.870;9.578;2022-11-20T07:57:09;100043.53;;;13.29;48.50
3544;BME280;1786;52.870;9.578;2022-11-20T07:59:35;100038.97;;;12.33;50.35
3544;BME280;1786;52.870;9.578;2022-11-20T08:02:02;100038.69;;;12.59;50.12
3544;BME280;1786;52.870;9.578;2022-11-20T08:04:29;100035.41;;;12.77;49.50
3544;BME280;1786;52.870;9.578;2022-11-20T08:06:56;100037.63;;;12.93;48.88
3544;BME280;1786;52.870;9.578;2022-11-20T08:09:23;100038.13;;;12.87;49.13
3544;BME280;1786;52.870;9.578;2022-11-20T08:11:49;100042.59;;;12.87;49.35
3544;BME280;1786;52.870;9.578;2022-11-20T08:14:34;100058.25;;;13.33;48.54
3544;BME280;1786;52.870;9.578;2022-11-20T08:17:01;100081.50;;;13.62;48.08
3544;BME280;1786;52.870;9.578;2022-11-20T08:19:27;100065.47;;;13.73;47.80
3544;BME280;1786;52.870;9.578;2022-11-20T08:21:55;100070.59;;;13.65;48.12
3544;BME280;1786;52.870;9.578;2022-11-20T08:24:21;100083.56;;;13.79;47.92
3544;BME280;1786;52.870;9.578;2022-11-20T08:26:48;100083.50;;;13.49;47.93
3544;BME280;1786;52.870;9.578;2022-11-20T08:29:14;100081.22;;;13.65;47.93
3544;BME280;1786;52.870;9.578;2022-11-20T08:31:41;100087.78;;;13.82;47.54
3544;BME280;1786;52.870;9.578;2022-11-20T08:34:08;100085.31;;;13.90;47.62
3544;BME280;1786;52.870;9.578;2022-11-20T08:36:36;100081.94;;;13.88;47.94
3544;BME280;1786;52.870;9.578;2022-11-20T08:39:03;100085.91;;;13.94;47.90
3544;BME280;1786;52.870;9.578;2022-11-20T08:41:30;100086.41;;;13.46;47.93
3544;BME280;1786;52.870;9.578;2022-11-20T08:44:01;100079.41;;;13.87;47.90
3544;BME280;1786;52.870;9.578;2022-11-20T08:46:34;100087.56;;;13.95;47.60
3544;BME280;1786;52.870;9.578;2022-11-20T08:49:04;100083.84;;;13.76;47.78
3544;BME280;1786;52.870;9.578;2022-11-20T08:51:30;100083.31;;;13.82;47.96
3544;BME280;1786;52.870;9.578;2022-11-20T08:53:57;100077.09;;;13.72;48.21
3544;BME280;1786;52.870;9.578;2022-11-20T08:56:24;100075.66;;;13.68;48.26
3544;BME280;1786;52.870;9.578;2022-11-20T08:58:51;100074.03;;;13.77;48.05
3544;BME280;1786;52.870;9.578;2022-11-20T09:01:38;100071.22;;;13.69;48.82
3544;BME280;1786;52.870;9.578;2022-11-20T09:04:05;100066.22;;;13.33;49.03
3544;BME280;1786;52.870;9.578;2022-11-20T09:06:32;100072.34;;;13.55;48.66
3544;BME280;1786;52.870;9.578;2022-11-20T09:08:59;100069.69;;;13.34;48.57
3544;BME280;1786;52.870;9.578;2022-11-20T09:11:32;100079.28;;;13.14;49.43
3544;BME280;1786;52.870;9.578;2022-11-20T09:13:58;100077.22;;;13.50;48.62
3544;BME280;1786;52.870;9.578;2022-11-20T09:16:26;100069.78;;;13.44;48.66
3544;BME280;1786;52.870;9.578;2022-11-20T09:18:52;100068.63;;;12.93;49.35
3544;BME280;1786;52.870;9.578;2022-11-20T09:21:39;100072.03;;;13.16;49.35
3544;BME280;1786;52.870;9.578;2022-11-20T09:24:06;100070.09;;;13.50;49.09
3544;BME280;1786;52.870;9.578;2022-11-20T09:26:32;100075.88;;;13.23;49.08
3544;BME280;1786;52.870;9.578;2022-11-20T09:28:59;100075.63;;;13.58;48.77
3544;BME280;1786;52.870;9.578;2022-11-20T09:31:25;100064.75;;;13.29;49.04
3544;BME280;1786;52.870;9.578;2022-11-20T09:33:52;100074.38;;;13.83;48.52
3544;BME280;1786;52.870;9.578;2022-11-20T09:36:19;100073.94;;;13.78;48.28
3544;BME280;1786;52.870;9.578;2022-11-20T09:38:46;100064.91;;;13.70;48.95
3544;BME280;1786;52.870;9.578;2022-11-20T09:49:36;100069.41;;;14.31;47.66
3544;BME280;1786;52.870;9.578;2022-11-20T09:52:22;100067.88;;;14.68;47.50
3544;BME280;1786;52.870;9.578;2022-11-20T09:54:54;100070.69;;;14.67;47.41
3544;BME280;1786;52.870;9.578;2022-11-20T09:57:25;100071.84;;;14.84;47.42
3544;BME280;1786;52.870;9.578;2022-11-20T10:00:04;100059.66;;;14.91;47.99
3544;BME280;1786;52.870;9.578;2022-11-20T10:05:27;100068.63;;;17.87;44.12
3544;BME280;1786;52.870;9.578;2022-11-20T10:33:03;100056.09;;;17.08;42.17
3544;BME280;1786;52.870;9.578;2022-11-20T10:44:59;100058.16;;;16.78;42.77
3544;BME280;1786;52.870;9.578;2022-11-20T10:47:32;100049.19;;;15.28;44.81
3544;BME280;1786;52.870;9.578;2022-11-20T10:50:04;100045.41;;;15.31;44.71
3544;BME280;1786;52.870;9.578;2022-11-20T10:52:42;100049.00;;;15.69;44.23
3544;BME280;1786;52.870;9.578;2022-11-20T10:55:48;100043.31;;;15.25;44.73
3544;BME280;1786;52.870;9.578;2022-11-20T10:58:25;100049.31;;;15.46;44.72
3544;BME280;1786;52.870;9.578;2022-11-20T11:01:24;100046.25;;;15.70;44.62
3544;BME280;1786;52.870;9.578;2022-11-20T11:03:51;100048.59;;;15.64;44.64
3544;BME280;1786;52.870;9.578;2022-11-20T11:06:29;100043.59;;;14.92;45.46
3544;BME280;1786;52.870;9.578;2022-11-20T11:09:02;100039.22;;;15.01;45.49
3544;BME280;1786;52.870;9.578;2022-11-20T11:11:33;100031.13;;;14.93;45.50
3544;BME280;1786;52.870;9.578;2022-11-20T11:14:07;100029.16;;;15.05;45.39
3544;BME280;1786;52.870;9.578;2022-11-20T11:16:34;100041.19;;;15.57;44.79
3544;BME280;1786;52.870;9.578;2022-11-20T11:19:06;100038.97;;;15.33;45.18
3544;BME280;1786;52.870;9.578;2022-11-20T11:21:34;100032.25;;;15.20;45.22
3544;BME280;1786;52.870;9.578;2022-11-20T11:24:03;100036.53;;;14.62;46.08
3544;BME280;1786;52.870;9.578;2022-11-20T11:27:01;100031.94;;;14.84;45.43
3544;BME280;1786;52.870;9.578;2022-11-20T11:29:37;100031.13;;;15.03;45.73
3544;BME280;1786;52.870;9.578;2022-11-20T11:32:17;100028.16;;;14.36;46.20
3544;BME280;1786;52.870;9.578;2022-11-20T11:34:44;100024.84;;;14.44;45.91
3544;BME280;1786;52.870;9.578;2022-11-20T11:37:18;100025.66;;;14.35;46.30
3544;BME280;1786;52.870;9.578;2022-11-20T11:39:48;100018.47;;;14.56;46.33
3544;BME280;1786;52.870;9.578;2022-11-20T11:42:35;100023.09;;;14.54;45.81
3544;BME280;1786;52.870;9.578;2022-11-20T11:45:16;100023.59;;;14.48;46.40
3544;BME280;1786;52.870;9.578;2022-11-20T11:48:36;100021.31;;;14.74;45.59
3544;BME280;1786;52.870;9.578;2022-11-20T11:52:00;100018.50;;;14.76;45.32
3544;BME280;1786;52.870;9.578;2022-11-20T11:54:24;100030.50;;;14.60;44.99
3544;BME280;1786;52.870;9.578;2022-11-20T11:56:55;100017.22;;;14.60;45.44
3544;BME280;1786;52.870;9.578;2022-11-20T12:05:32;100020.06;;;14.38;46.46
3544;BME280;1786;52.870;9.578;2022-11-20T12:08:24;100022.72;;;14.38;46.35
3544;BME280;1786;52.870;9.578;2022-11-20T12:14:44;100020.00;;;14.18;46.83
3544;BME280;1786;52.870;9.578;2022-11-20T12:17:57;100012.25;;;14.46;46.16
3544;BME280;1786;52.870;9.578;2022-11-20T12:30:52;100008.56;;;14.27;46.05
3544;BME280;1786;52.870;9.578;2022-11-20T13:07:11;99988.53;;;13.52;47.59
3544;BME280;1786;52.870;9.578;2022-11-20T13:10:39;99985.66;;;13.65;46.98
3544;BME280;1786;52.870;9.578;2022-11-20T13:13:25;99987.69;;;13.82;46.58
3544;BME280;1786;52.870;9.578;2022-11-20T13:21:50;99987.81;;;13.29;47.86
3544;BME280;1786;52.870;9.578;2022-11-20T13:29:33;99979.19;;;13.58;47.50
3544;BME280;1786;52.870;9.578;2022-11-20T13:32:06;99978.34;;;13.88;47.16
3544;BME280;1786;52.870;9.578;2022-11-20T13:34:34;99986.31;;;13.88;47.15
3544;BME280;1786;52.870;9.578;2022-11-20T13:37:02;99976.41;;;14.31;46.72
3544;BME280;1786;52.870;9.578;2022-11-20T13:39:34;99973.91;;;14.39;46.60
3544;BME280;1786;52.870;9.578;2022-11-20T13:42:22;99969.69;;;14.36;46.64
3544;BME280;1786;52.870;9.578;2022-11-20T13:45:01;99966.34;;;14.24;47.13
3544;BME280;1786;52.870;9.578;2022-11-20T13:47:29;99969.03;;;14.44;46.59
3544;BME280;1786;52.870;9.578;2022-11-20T13:49:59;99972.06;;;14.29;46.79
3544;BME280;1786;52.870;9.578;2022-11-20T13:53:23;99971.53;;;14.45;46.82
3544;BME280;1786;52.870;9.578;2022-11-20T13:56:07;99968.00;;;14.25;47.01
3544;BME280;1786;52.870;9.578;2022-11-20T14:01:28;99969.97;;;14.33;47.14
3544;BME280;1786;52.870;9.578;2022-11-20T14:03:56;99962.56;;;14.27;47.40
3544;BME280;1786;52.870;9.578;2022-11-20T14:06:39;99957.31;;;14.06;47.25
3544;BME280;1786;52.870;9.578;2022-11-20T14:09:30;99952.28;;;14.03;47.65
3544;BME280;1786;52.870;9.578;2022-11-20T14:11:57;99964.78;;;13.81;47.86
3544;BME280;1786;52.870;9.578;2022-11-20T14:14:26;99958.38;;;13.84;47.84
3544;BME280;1786;52.870;9.578;2022-11-20T14:17:22;99954.44;;;13.88;47.80
3544;BME280;1786;52.870;9.578;2022-11-20T14:19:52;99956.03;;;13.18;49.17
3544;BME280;1786;52.870;9.578;2022-11-20T14:22:26;99957.00;;;13.59;48.39
3544;BME280;1786;52.870;9.578;2022-11-20T14:27:43;99941.69;;;13.41;48.69
3544;BME280;1786;52.870;9.578;2022-11-20T14:30:15;99938.34;;;12.86;49.33
3544;BME280;1786;52.870;9.578;2022-11-20T14:32:44;99927.91;;;12.73;49.91
3544;BME280;1786;52.870;9.578;2022-11-20T14:35:21;99929.50;;;12.65;49.85
3544;BME280;1786;52.870;9.578;2022-11-20T14:37:50;99927.31;;;13.23;49.07
3544;BME280;1786;52.870;9.578;2022-11-20T14:40:24;99923.09;;;13.72;48.07
3544;BME280;1786;52.870;9.578;2022-11-20T14:42:51;99924.22;;;13.39;48.57
3544;BME280;1786;52.870;9.578;2022-11-20T14:45:19;99920.78;;;13.89;47.47
3544;BME280;1786;52.870;9.578;2022-11-20T14:47:51;99924.47;;;13.67;47.73
3544;BME280;1786;52.870;9.578;2022-11-20T14:50:27;99929.00;;;13.76;47.19
3544;BME280;1786;52.870;9.578;2022-11-20T14:52:57;99925.28;;;13.98;47.40
3544;BME280;1786;52.870;9.578;2022-11-20T14:55:30;99925.47;;;13.75;47.82
3544;BME280;1786;52.870;9.578;2022-11-20T14:58:05;99929.28;;;13.52;47.83
3544;BME280;1786;52.870;9.578;2022-11-20T15:00:34;99917.72;;;13.11;48.58
3544;BME280;1786;52.870;9.578;2022-11-20T15:03:01;99910.84;;;13.91;47.67
3544;BME280;1786;52.870;9.578;2022-11-20T15:05:47;99912.03;;;13.36;48.05
3544;BME280;1786;52.870;9.578;2022-11-20T15:08:15;99910.72;;;13.52;47.84
3544;BME280;1786;52.870;9.578;2022-11-20T15:10:47;99912.47;;;13.72;47.24
3544;BME280;1786;52.870;9.578;2022-11-20T15:13:29;99900.34;;;13.79;47.38
3544;BME280;1786;52.870;9.578;2022-11-20T15:15:58;99900.75;;;13.75;46.93
3544;BME280;1786;52.870;9.578;2022-11-20T15:18:36;99902.81;;;13.40;47.52
3544;BME280;1786;52.870;9.578;2022-11-20T15:21:10;99905.63;;;13.39;47.31
3544;BME280;1786;52.870;9.578;2022-11-20T15:23:38;99897.88;;;13.57;47.05
3544;BME280;1786;52.870;9.578;2022-11-20T15:26:05;99897.00;;;13.47;47.02
3544;BME280;1786;52.870;9.578;2022-11-20T15:28:37;99903.88;;;13.49;47.17
3544;BME280;1786;52.870;9.578;2022-11-20T15:31:06;99892.06;;;13.73;46.42
3544;BME280;1786;52.870;9.578;2022-11-20T15:33:33;99894.06;;;13.80;46.51
3544;BME280;1786;52.870;9.578;2022-11-20T15:36:00;99891.28;;;13.82;46.43